createdAt,value
2023-04-03T00:07:45.149Z,4.70
2023-04-03T00:20:45.140Z,4.50
2023-04-03T00:33:45.133Z,4.20
2023-04-03T00:46:45.240Z,3.90
2023-04-03T00:59:45.161Z,3.60
2023-04-03T01:12:46.333Z,3.30
2023-04-03T01:25:45.176Z,3.30
2023-04-03T01:38:45.172Z,3.00
2023-04-03T01:51:45.215Z,2.90
2023-04-03T02:04:45.186Z,2.65
2023-04-03T02:17:45.248Z,2.30
2023-04-03T02:30:45.197Z,2.10
2023-04-03T02:43:45.307Z,2.10
2023-04-03T02:56:45.265Z,2.10
2023-04-03T03:09:45.234Z,1.90
2023-04-03T03:22:45.254Z,1.90
2023-04-03T03:35:45.283Z,1.80
2023-04-03T03:48:45.269Z,1.70
2023-04-03T04:01:45.265Z,1.40
2023-04-03T04:14:45.288Z,1.40
2023-04-03T04:27:45.266Z,1.40
2023-04-03T04:40:45.293Z,1.20
2023-04-03T04:54:45.277Z,1.15
2023-04-03T05:08:45.319Z,1.40
2023-04-03T05:23:45.342Z,1.70
2023-04-03T05:37:45.376Z,2.00
2023-04-03T05:51:45.366Z,6.20
2023-04-03T06:05:45.413Z,6.90
2023-04-03T06:19:45.431Z,7.30
2023-04-03T06:33:45.420Z,7.90
2023-04-03T06:47:45.430Z,7.70
2023-04-03T07:01:45.458Z,7.20
2023-04-03T07:15:45.480Z,6.70
2023-04-03T07:29:45.427Z,6.80
2023-04-03T07:43:45.479Z,6.25
2023-04-03T07:57:45.517Z,5.60
2023-04-03T08:11:45.724Z,5.40
2023-04-03T08:25:45.606Z,4.90
2023-04-03T08:39:45.633Z,4.90
2023-04-03T08:53:45.625Z,4.55
2023-04-03T09:07:46.363Z,4.55
2023-04-03T09:21:45.620Z,3.90
2023-04-03T09:35:48.405Z,3.95
2023-04-03T09:49:45.629Z,3.80
2023-04-03T10:03:45.641Z,3.30
2023-04-03T10:17:45.681Z,3.10
2023-04-03T10:31:45.660Z,2.80
2023-04-03T10:45:45.792Z,2.50
2023-04-03T10:59:45.729Z,2.60
2023-04-03T11:13:45.711Z,2.30
2023-04-03T11:27:45.735Z,2.40
2023-04-03T11:41:45.753Z,2.20
2023-04-03T11:55:45.777Z,2.20
2023-04-03T12:09:45.766Z,1.90
2023-04-03T12:23:45.792Z,1.70
2023-04-03T12:37:45.828Z,1.90
2023-04-03T12:51:45.795Z,1.70
2023-04-03T13:05:45.846Z,1.50
2023-04-03T13:19:45.841Z,1.65
2023-04-03T13:33:45.854Z,1.40
2023-04-03T13:47:46.020Z,1.90
2023-04-03T14:01:45.888Z,1.80
2023-04-03T14:15:45.882Z,1.60
2023-04-03T14:29:45.875Z,1.70
2023-04-03T14:43:45.901Z,2.30
2023-04-03T14:57:45.933Z,1.70
2023-04-03T15:11:45.888Z,1.50
2023-04-03T15:25:45.895Z,1.50
2023-04-03T15:39:45.927Z,1.50
2023-04-03T15:53:45.952Z,1.40
2023-04-03T16:07:45.942Z,1.80
2023-04-03T16:21:45.954Z,1.90
2023-04-03T16:35:45.963Z,2.70
2023-04-03T16:49:46.218Z,2.85
2023-04-03T17:03:46.004Z,3.00
2023-04-03T17:17:45.989Z,2.80
2023-04-03T17:32:46.020Z,3.10
2023-04-03T17:46:46.075Z,2.90
2023-04-03T18:00:45.998Z,2.60
2023-04-03T18:14:46.006Z,2.60
2023-04-03T18:27:46.041Z,2.90
2023-04-03T18:40:46.049Z,2.70
2023-04-03T18:53:46.080Z,2.60
2023-04-03T19:06:46.081Z,2.60
2023-04-03T19:19:46.132Z,2.40
2023-04-03T19:32:46.110Z,2.40
2023-04-03T19:45:46.125Z,2.40
2023-04-03T19:58:46.156Z,2.20
2023-04-03T20:11:46.137Z,2.10
2023-04-03T20:24:46.124Z,2.00
2023-04-03T20:37:46.154Z,2.10
2023-04-03T20:50:46.307Z,2.10
2023-04-03T21:03:46.403Z,2.15
2023-04-03T21:16:46.151Z,2.10
2023-04-03T21:29:46.155Z,1.90
2023-04-03T21:42:46.164Z,2.30
2023-04-03T21:55:46.153Z,2.30
2023-04-03T22:08:46.167Z,2.80
2023-04-03T22:21:46.181Z,2.80
2023-04-03T22:34:46.163Z,2.90
2023-04-03T22:47:46.251Z,2.50
2023-04-03T23:00:46.201Z,2.60
2023-04-03T23:13:46.206Z,2.50
2023-04-03T23:26:46.244Z,2.60
2023-04-03T23:39:46.303Z,2.30
2023-04-03T23:52:46.258Z,2.40
